createdAt,value
2018-10-21T00:00:22.939Z,89
2018-10-21T00:01:03.316Z,88.04
2018-10-21T00:01:43.743Z,89
2018-10-21T00:02:24.210Z,89.18
2018-10-21T00:03:04.581Z,88.9
2018-10-21T00:03:44.930Z,89.56
2018-10-21T00:04:25.357Z,89.37
2018-10-21T00:05:05.802Z,88.52
2018-10-21T00:05:46.214Z,87.95
2018-10-21T00:06:26.656Z,87.76
2018-10-21T00:07:07.137Z,87.19
2018-10-21T00:07:47.471Z,86.14
2018-10-21T00:08:28.007Z,85.76
2018-10-21T00:09:08.425Z,85.28
2018-10-21T00:09:48.747Z,84.52
2018-10-21T00:10:29.165Z,85.76
2018-10-21T00:11:09.746Z,85.66
2018-10-21T00:11:50.078Z,86.14
2018-10-21T00:12:30.469Z,86.8
2018-10-21T00:13:10.956Z,86.71
2018-10-21T00:13:51.353Z,87.66
2018-10-21T00:14:31.824Z,86.14
2018-10-21T00:15:12.303Z,84.52
2018-10-21T00:15:52.684Z,84.14
2018-10-21T00:16:33.077Z,84.14
2018-10-21T00:17:13.428Z,84.14
2018-10-21T00:17:53.823Z,83.58
2018-10-21T00:18:34.207Z,83.29
2018-10-21T00:19:16.185Z,83.67
2018-10-21T00:19:56.586Z,83.67
2018-10-21T00:20:36.951Z,83.86
2018-10-21T00:21:17.451Z,83.67
2018-10-21T00:21:57.793Z,84.24
2018-10-21T00:22:38.161Z,83.67
2018-10-21T00:23:20.366Z,83.86
2018-10-21T00:24:00.768Z,84.05
2018-10-21T00:24:41.155Z,84.52
2018-10-21T00:25:21.554Z,85.28
2018-10-21T00:26:04.787Z,85.34
2018-10-21T00:26:45.160Z,85.19
2018-10-21T00:27:25.492Z,85.57
2018-10-21T00:28:05.977Z,85.62
2018-10-21T00:28:46.359Z,85.72
2018-10-21T00:29:26.710Z,86.1
2018-10-21T00:30:07.178Z,86.47
2018-10-21T00:30:47.474Z,86.76
2018-10-21T00:31:27.896Z,86.47
2018-10-21T00:32:08.352Z,86.76
2018-10-21T00:32:48.726Z,87.24
2018-10-21T00:33:29.138Z,87.71
2018-10-21T00:34:09.565Z,88.28
2018-10-21T00:34:49.947Z,89.37
2018-10-21T00:35:30.358Z,89.33
2018-10-21T00:36:10.743Z,89.37
2018-10-21T00:36:51.178Z,88.33
2018-10-21T00:37:31.546Z,87.62
2018-10-21T00:38:11.929Z,88.09
2018-10-21T00:38:52.424Z,87.76
2018-10-21T00:39:32.779Z,88.13
2018-10-21T00:40:13.189Z,88
2018-10-21T00:40:53.685Z,87.66
2018-10-21T00:41:34.045Z,87.38
2018-10-21T00:42:14.465Z,89
2018-10-21T00:42:54.853Z,87.85
2018-10-21T00:43:35.281Z,89.09
2018-10-21T00:44:15.664Z,89.37
2018-10-21T00:44:56.156Z,88.71
2018-10-21T00:45:36.463Z,87.66
2018-10-21T00:46:16.854Z,85.95
2018-10-21T00:46:57.224Z,85
2018-10-21T00:47:37.645Z,84.33
2018-10-21T00:48:18.095Z,84.14
2018-10-21T00:48:58.463Z,85.76
2018-10-21T00:49:38.915Z,86.43
2018-10-21T00:50:19.319Z,86.52
2018-10-21T00:50:59.685Z,85.57
2018-10-21T00:51:40.128Z,84.72
2018-10-21T00:52:20.515Z,83.67
2018-10-21T00:53:00.941Z,84.33
2018-10-21T00:53:41.328Z,84.72
2018-10-21T00:54:21.752Z,85.76
2018-10-21T00:55:02.199Z,86.52
2018-10-21T00:55:42.641Z,85.66
2018-10-21T00:56:22.994Z,85.19
2018-10-21T00:57:03.468Z,85
2018-10-21T00:57:43.850Z,85.19
2018-10-21T00:58:24.291Z,85
2018-10-21T00:59:04.650Z,85.19
2018-10-21T00:59:45.060Z,85.95
2018-10-21T01:00:25.479Z,87.66
2018-10-21T01:01:05.916Z,88.04
2018-10-21T01:01:46.350Z,89
2018-10-21T01:02:26.796Z,89.09
2018-10-21T01:03:07.208Z,88.33
2018-10-21T01:03:47.570Z,87.19
2018-10-21T01:04:27.964Z,86.99
2018-10-21T01:05:08.421Z,86.57
2018-10-21T01:05:48.847Z,86.47
2018-10-21T01:06:29.215Z,84.81
2018-10-21T01:07:09.682Z,83.81
2018-10-21T01:07:50.063Z,83.76
2018-10-21T01:08:30.501Z,83.9
2018-10-21T01:09:10.998Z,85.42
2018-10-21T01:09:51.303Z,84
2018-10-21T01:10:31.697Z,84.85
2018-10-21T01:11:12.133Z,84.09
2018-10-21T01:11:53.193Z,84.28
2018-10-21T01:12:33.565Z,83.71
2018-10-21T01:13:14.055Z,83
2018-10-21T01:13:54.356Z,82.86
2018-10-21T01:14:34.795Z,82.24
2018-10-21T01:15:15.324Z,81.86
2018-10-21T01:15:55.564Z,81.2
2018-10-21T01:16:35.948Z,82.15
2018-10-21T01:17:16.407Z,83.1
2018-10-21T01:17:56.817Z,83.1
2018-10-21T01:18:37.215Z,83.19
2018-10-21T01:19:17.583Z,84.05
2018-10-21T01:19:58.022Z,85.19
2018-10-21T01:20:38.404Z,84.81
2018-10-21T01:21:18.806Z,85.57
2018-10-21T01:21:59.225Z,85.76
2018-10-21T01:22:39.634Z,86.14
2018-10-21T01:23:20.061Z,85.86
2018-10-21T01:24:00.457Z,85.95
2018-10-21T01:24:40.815Z,85.86
2018-10-21T01:25:21.228Z,86.52
2018-10-21T01:26:01.664Z,86.05
2018-10-21T01:26:42.069Z,86.1
2018-10-21T01:27:22.459Z,85.62
2018-10-21T01:28:02.881Z,86
2018-10-21T01:28:43.332Z,86.38
2018-10-21T01:29:23.752Z,86.47
2018-10-21T01:30:04.186Z,86.76
2018-10-21T01:30:44.540Z,87.14
2018-10-21T01:31:24.992Z,87.62
2018-10-21T01:32:05.468Z,87.52
2018-10-21T01:32:45.891Z,87.14
2018-10-21T01:33:26.345Z,87.52
2018-10-21T01:34:06.752Z,87.52
2018-10-21T01:34:47.133Z,88
2018-10-21T01:35:27.559Z,87.71
2018-10-21T01:36:07.974Z,88.28
2018-10-21T01:36:48.475Z,87.52
2018-10-21T01:37:28.813Z,87.81
2018-10-21T01:38:09.326Z,88.47
2018-10-21T01:38:49.598Z,89.23
2018-10-21T01:39:30.036Z,88.47
2018-10-21T01:40:10.414Z,88
2018-10-21T01:40:50.835Z,87.62
2018-10-21T01:41:31.261Z,87.9
2018-10-21T01:42:11.659Z,88.28
2018-10-21T01:42:52.016Z,88.67
2018-10-21T01:43:35.415Z,88.28
2018-10-21T01:44:15.786Z,89.14
2018-10-21T01:44:56.138Z,88.09
2018-10-21T01:45:36.617Z,88.57
2018-10-21T01:46:17.064Z,88.95
2018-10-21T01:46:57.356Z,89.33
2018-10-21T01:47:37.794Z,88.67
2018-10-21T01:48:18.193Z,88
2018-10-21T01:48:58.595Z,87.34
2018-10-21T01:49:39.093Z,87.14
2018-10-21T01:50:19.429Z,86.67
2018-10-21T01:50:59.909Z,86.67
2018-10-21T01:51:40.256Z,87.14
2018-10-21T01:52:20.677Z,87.52
2018-10-21T01:53:01.098Z,87.24
2018-10-21T01:53:41.467Z,86.86
2018-10-21T01:54:21.860Z,86.76
2018-10-21T01:55:02.329Z,87.14
2018-10-21T01:55:42.774Z,87.71
2018-10-21T01:56:23.087Z,87.71
2018-10-21T01:57:03.551Z,87.62
2018-10-21T01:57:43.931Z,88.19
2018-10-21T01:58:24.324Z,88.85
2018-10-21T01:59:04.707Z,88.38
2018-10-21T01:59:45.133Z,88.38
2018-10-21T02:00:25.532Z,88.67
2018-10-21T02:01:05.945Z,88.47
2018-10-21T02:01:46.321Z,88.19
2018-10-21T02:02:26.739Z,89.33
2018-10-21T02:03:07.237Z,90.37
2018-10-21T02:03:47.617Z,89.8
2018-10-21T02:04:27.983Z,90.66
2018-10-21T02:05:08.460Z,90.19
2018-10-21T02:05:48.790Z,90.75
2018-10-21T02:06:29.223Z,89.71
2018-10-21T02:07:09.690Z,89.9
2018-10-21T02:07:50.019Z,89.61
2018-10-21T02:08:30.480Z,90
2018-10-21T02:09:10.977Z,90.09
2018-10-21T02:09:51.307Z,90
2018-10-21T02:10:31.715Z,91.04
2018-10-21T02:11:12.093Z,90.47
2018-10-21T02:11:52.525Z,91.13
2018-10-21T02:13:41.865Z,90.09
2018-10-21T02:14:22.376Z,91.23
2018-10-21T02:15:03.128Z,91.33
2018-10-21T02:17:19.828Z,90.66
2018-10-21T02:19:15.030Z,92.27
2018-10-21T02:19:55.632Z,91.23
2018-10-21T02:20:36.032Z,91.71
2018-10-21T02:21:16.463Z,91.33
2018-10-21T02:21:56.759Z,90.94
2018-10-21T02:22:37.174Z,91.04
2018-10-21T02:23:17.581Z,90.37
2018-10-21T02:23:57.982Z,90.47
2018-10-21T02:24:38.400Z,90
2018-10-21T02:25:18.778Z,91.04
2018-10-21T02:25:59.253Z,91.8
2018-10-21T02:26:39.602Z,92.37
2018-10-21T02:27:20.156Z,91.52
2018-10-21T02:28:00.433Z,91.89
2018-10-21T02:28:40.842Z,91.89
2018-10-21T02:29:21.253Z,91.99
2018-10-21T02:30:01.698Z,90.94
2018-10-21T02:30:42.054Z,90.09
2018-10-21T02:31:22.511Z,90.37
2018-10-21T02:32:02.883Z,91.42
2018-10-21T02:32:43.259Z,91.13
2018-10-21T02:33:23.816Z,90.09
2018-10-21T02:34:04.050Z,90.47
2018-10-21T02:34:44.457Z,92.37
2018-10-21T02:35:24.847Z,92.27
2018-10-21T02:36:05.221Z,92.46
2018-10-21T02:36:45.635Z,91.8
2018-10-21T02:37:26.075Z,91.8
2018-10-21T02:38:06.458Z,91.33
2018-10-21T02:38:46.913Z,90.28
2018-10-21T02:39:27.323Z,89.23
2018-10-21T02:40:07.774Z,88.85
2018-10-21T02:40:48.192Z,88.09
2018-10-21T02:41:28.548Z,89.33
2018-10-21T02:42:09.040Z,90.47
2018-10-21T02:42:49.408Z,90.28
2018-10-21T02:43:29.723Z,92.27
2018-10-21T02:44:10.153Z,90.94
2018-10-21T02:44:50.614Z,91.52
2018-10-21T02:45:31.024Z,91.89
2018-10-21T02:46:11.455Z,90
2018-10-21T02:46:52.350Z,88
2018-10-21T02:47:32.748Z,87.52
2018-10-21T02:48:13.163Z,87.71
2018-10-21T02:48:53.609Z,87.14
2018-10-21T02:49:33.991Z,87.34
2018-10-21T02:50:14.491Z,87.24
2018-10-21T02:50:54.836Z,87.62
2018-10-21T02:51:38.207Z,90.28
2018-10-21T02:52:18.558Z,90.09
2018-10-21T02:52:59.050Z,88.47
2018-10-21T02:53:39.407Z,87.52
2018-10-21T02:54:19.898Z,87.14
2018-10-21T02:55:00.295Z,87.43
2018-10-21T02:55:40.729Z,87.81
2018-10-21T02:56:21.068Z,87.34
2018-10-21T02:57:01.537Z,87.52
2018-10-21T02:57:41.914Z,87.34
2018-10-21T02:58:22.363Z,87.81
2018-10-21T02:59:02.779Z,88.95
2018-10-21T02:59:43.175Z,88.47
2018-10-21T03:00:23.569Z,89.23
2018-10-21T03:01:04.018Z,89.42
2018-10-21T03:01:44.437Z,89.42
2018-10-21T03:02:24.875Z,90.47
2018-10-21T03:03:05.320Z,90.14
2018-10-21T03:03:45.678Z,89.14
2018-10-21T03:04:26.071Z,90.56
2018-10-21T03:05:06.501Z,89.9
2018-10-21T03:05:46.898Z,89.71
2018-10-21T03:06:27.291Z,90.19
2018-10-21T03:07:07.698Z,89.57
2018-10-21T03:07:48.094Z,90.14
2018-10-21T03:08:28.481Z,90.14
2018-10-21T03:09:09.048Z,89.28
2018-10-21T03:09:49.351Z,88.53
2018-10-21T03:10:29.801Z,89.19
2018-10-21T03:11:10.227Z,89.95
2018-10-21T03:11:50.636Z,90.33
2018-10-21T03:12:31.032Z,90.33
2018-10-21T03:13:11.445Z,91.85
2018-10-21T03:13:51.884Z,92.99
2018-10-21T03:14:32.287Z,92.61
2018-10-21T03:15:12.712Z,91.94
2018-10-21T03:15:53.080Z,91.75
2018-10-21T03:16:33.439Z,92.51
2018-10-21T03:17:13.868Z,93.65
2018-10-21T03:17:54.499Z,93.27
2018-10-21T03:18:37.601Z,92.71
2018-10-21T03:19:18.154Z,91.66
2018-10-21T03:19:58.430Z,90.42
2018-10-21T03:20:38.838Z,90.23
2018-10-21T03:21:19.433Z,91.85
2018-10-21T03:21:59.698Z,91.28
2018-10-21T03:22:40.116Z,91.85
2018-10-21T03:23:20.477Z,91.75
2018-10-21T03:24:00.889Z,90.8
2018-10-21T03:24:41.281Z,90.9
2018-10-21T03:25:21.658Z,90.9
2018-10-21T03:26:02.057Z,91.09
2018-10-21T03:26:42.442Z,90.42
2018-10-21T03:27:22.815Z,90.61
2018-10-21T03:28:03.228Z,90.14
2018-10-21T03:28:43.703Z,90.61
2018-10-21T03:29:24.069Z,90.99
2018-10-21T03:30:04.473Z,91.47
2018-10-21T03:30:44.899Z,91.56
2018-10-21T03:31:25.242Z,91.56
2018-10-21T03:32:05.662Z,91.38
2018-10-21T03:32:46.158Z,90.99
2018-10-21T03:33:26.661Z,91.19
2018-10-21T03:34:07.182Z,91.19
2018-10-21T03:34:47.416Z,91.85
2018-10-21T03:35:27.837Z,91.75
2018-10-21T03:36:08.245Z,90.99
2018-10-21T03:36:48.665Z,90.33
2018-10-21T03:37:29.058Z,91.66
2018-10-21T03:38:09.440Z,92.8
2018-10-21T03:38:49.871Z,91.47
2018-10-21T03:39:30.242Z,92.51
2018-10-21T03:40:10.719Z,91.56
2018-10-21T03:40:51.031Z,91.47
2018-10-21T03:41:31.517Z,91.66
2018-10-21T03:42:11.903Z,91.85
2018-10-21T03:42:52.325Z,91.94
2018-10-21T03:43:32.756Z,91.66
2018-10-21T03:44:13.119Z,92.04
2018-10-21T03:44:53.502Z,91.38
2018-10-21T03:45:34.009Z,91.66
2018-10-21T03:46:14.372Z,91.66
2018-10-21T03:46:54.765Z,91.66
2018-10-21T03:47:35.088Z,91.47
2018-10-21T03:48:15.576Z,91.66
2018-10-21T03:48:56.006Z,91.85
2018-10-21T03:49:36.387Z,91.28
2018-10-21T03:50:16.757Z,91.85
2018-10-21T03:50:57.319Z,90.9
2018-10-21T03:51:37.618Z,90.33
2018-10-21T03:52:18.059Z,90.61
2018-10-21T03:52:58.436Z,90.99
2018-10-21T03:53:38.857Z,91.19
2018-10-21T03:54:19.292Z,90.52
2018-10-21T03:54:59.663Z,90.99
2018-10-21T03:55:40.083Z,90.28
2018-10-21T03:56:20.525Z,89.9
2018-10-21T03:57:00.920Z,90.76
2018-10-21T03:57:41.307Z,90.76
2018-10-21T03:58:21.652Z,91.71
2018-10-21T03:59:02.051Z,91.33
2018-10-21T03:59:42.487Z,92.18
2018-10-21T04:00:22.890Z,90.95
2018-10-21T04:01:03.274Z,91.71
2018-10-21T04:01:43.689Z,92.28
2018-10-21T04:02:24.124Z,91.89
2018-10-21T04:03:04.513Z,92.66
2018-10-21T04:03:44.977Z,92.47
2018-10-21T04:04:25.394Z,93.51
2018-10-21T04:05:05.764Z,93.7
2018-10-21T04:05:46.241Z,93.51
2018-10-21T04:06:27.718Z,92.47
2018-10-21T04:07:08.130Z,92.66
2018-10-21T04:07:48.539Z,92.09
2018-10-21T04:08:28.917Z,91.89
2018-10-21T04:09:09.353Z,91.61
2018-10-21T04:09:49.741Z,92.09
2018-10-21T04:10:30.160Z,91.8
2018-10-21T04:11:10.610Z,92.66
2018-10-21T04:11:50.952Z,92.47
2018-10-21T04:12:31.394Z,92.66
2018-10-21T04:13:11.767Z,92.37
2018-10-21T04:13:52.168Z,91.61
2018-10-21T04:14:32.626Z,91.8
2018-10-21T04:15:13.067Z,92.09
2018-10-21T04:15:53.461Z,93.04
2018-10-21T04:16:33.851Z,93.32
2018-10-21T04:17:14.225Z,94.13
2018-10-21T04:17:54.588Z,93.94
2018-10-21T04:18:35.024Z,96.22
2018-10-21T04:19:15.389Z,95.46
2018-10-21T04:19:55.843Z,96.12
2018-10-21T04:20:36.217Z,95.36
2018-10-21T04:21:16.626Z,93.37
2018-10-21T04:21:57.069Z,93.65
2018-10-21T04:22:37.438Z,92.99
2018-10-21T04:23:17.856Z,92.8
2018-10-21T04:23:58.221Z,91.19
2018-10-21T04:24:38.654Z,91.47
2018-10-21T04:25:19.081Z,90.71
2018-10-21T04:25:59.477Z,90.8
2018-10-21T04:26:39.920Z,90.14
2018-10-21T04:27:20.325Z,89.57
2018-10-21T05:08:05.846Z,99.16
2018-10-21T05:08:54.111Z,98.3
2018-10-21T05:09:42.560Z,97.64
2018-10-21T05:10:30.571Z,97.64
2018-10-21T05:11:10.198Z,98.68
2018-10-21T05:11:50.731Z,98.87
2018-10-21T05:12:31.160Z,99.99
2018-10-21T05:13:11.539Z,99.99
2018-10-21T05:13:51.918Z,99.26
2018-10-21T05:14:32.273Z,99.16
2018-10-21T05:15:12.747Z,98.59
2018-10-21T05:15:53.087Z,97.55
2018-10-21T05:16:33.552Z,97.26
2018-10-21T05:17:13.950Z,97.26
2018-10-21T05:17:54.382Z,97.55
2018-10-21T05:18:34.828Z,98.11
2018-10-21T05:19:16.780Z,97.55
2018-10-21T05:19:57.201Z,98.21
2018-10-21T05:20:37.589Z,98.59
2018-10-21T05:21:18.056Z,98.68
2018-10-21T05:21:58.465Z,98.59
2018-10-21T05:22:38.883Z,99.26
2018-10-21T05:23:19.269Z,98.3
2018-10-21T05:23:59.792Z,98.68
2018-10-21T05:24:40.106Z,98.49
2018-10-21T05:25:20.531Z,98.78
2018-10-21T05:26:00.901Z,99.54
2018-10-21T05:26:41.292Z,99.99
2018-10-21T05:27:21.743Z,99.99
2018-10-21T05:28:02.228Z,99.82
2018-10-21T05:28:42.579Z,98.59
2018-10-21T05:29:22.971Z,98.4
2018-10-21T05:30:03.391Z,96.93
2018-10-21T05:30:43.780Z,96.55
2018-10-21T05:31:24.207Z,98.11
2018-10-21T05:32:04.577Z,97.22
2018-10-21T05:32:46.964Z,97.31
2018-10-21T05:33:27.402Z,96.93
2018-10-21T05:34:07.757Z,96.64
2018-10-21T05:34:48.168Z,95.98
2018-10-21T05:35:28.596Z,96.08
2018-10-21T05:36:09.035Z,95.31
2018-10-21T05:36:49.403Z,94.65
2018-10-21T05:37:29.824Z,94.56
2018-10-21T05:38:10.226Z,94.65
2018-10-21T05:38:50.679Z,94.56
2018-10-21T05:39:31.051Z,94.27
2018-10-21T05:40:11.495Z,93.7
2018-10-21T05:40:51.861Z,94.56
2018-10-21T05:41:32.254Z,93.8
2018-10-21T05:42:12.817Z,93.89
2018-10-21T05:42:53.253Z,93.8
2018-10-21T05:43:33.601Z,93.51
2018-10-21T05:44:13.987Z,93.32
2018-10-21T05:44:54.399Z,93.89
2018-10-21T05:45:34.881Z,94.27
2018-10-21T05:46:15.306Z,94.93
2018-10-21T05:46:55.715Z,94.46
2018-10-21T05:47:36.095Z,94.65
2018-10-21T05:48:16.494Z,94.18
2018-10-21T05:48:56.927Z,94.27
2018-10-21T05:49:37.324Z,94.27
2018-10-21T05:50:17.703Z,93.8
2018-10-21T05:50:58.116Z,93.32
2018-10-21T05:51:38.511Z,92.66
2018-10-21T05:52:18.945Z,92.28
2018-10-21T05:52:59.411Z,93.51
2018-10-21T05:53:39.843Z,93.8
2018-10-21T05:54:20.238Z,92.47
2018-10-21T05:55:00.623Z,91.89
2018-10-21T05:55:41.055Z,91.24
2018-10-21T05:56:21.420Z,91.52
2018-10-21T05:57:01.818Z,91.89
2018-10-21T05:57:42.333Z,92.18
2018-10-21T05:58:22.760Z,91.14
2018-10-21T05:59:04.902Z,91.8
2018-10-21T05:59:45.295Z,91.8
2018-10-21T06:00:25.671Z,93.89
2018-10-21T06:01:06.099Z,93.89
2018-10-21T06:01:46.529Z,92.75
2018-10-21T06:02:26.995Z,92.47
2018-10-21T06:03:07.404Z,92.28
2018-10-21T06:03:47.934Z,93.32
2018-10-21T06:04:28.160Z,92.94
2018-10-21T06:05:10.303Z,93.13
2018-10-21T06:05:50.727Z,95.08
2018-10-21T06:06:31.194Z,94.13
2018-10-21T06:07:11.608Z,94.32
2018-10-21T06:07:51.990Z,94.13
2018-10-21T06:08:32.468Z,91.28
2018-10-21T06:09:12.829Z,90.33
2018-10-21T06:09:57.467Z,90.42
2018-10-21T06:10:37.399Z,89.57
2018-10-21T06:11:18.034Z,89.38
2018-10-21T06:11:58.244Z,88.05
2018-10-21T06:12:39.590Z,88.15
2018-10-21T06:13:19.547Z,88.24
2018-10-21T06:13:59.980Z,88.9
2018-10-21T06:14:40.420Z,90.14
2018-10-21T06:15:21.218Z,90.8
2018-10-21T06:16:01.831Z,90.05
2018-10-21T06:16:43.021Z,90.8
2018-10-21T06:17:23.477Z,90.71
2018-10-21T06:18:03.859Z,90.23
2018-10-21T06:18:45.195Z,90.61
2018-10-21T06:19:25.601Z,89.95
2018-10-21T06:20:05.975Z,90.42
2018-10-21T06:20:46.373Z,89.38
2018-10-21T06:21:26.792Z,87.76
2018-10-21T06:22:07.294Z,87.76
2018-10-21T06:22:47.673Z,88.71
2018-10-21T06:23:27.994Z,88.43
2018-10-21T06:24:08.380Z,87.38
2018-10-21T06:24:49.232Z,87.76
2018-10-21T06:25:29.323Z,87.38
2018-10-21T06:26:09.744Z,88.9
2018-10-21T06:26:50.062Z,89.28
2018-10-21T06:27:30.600Z,88.81
2018-10-21T06:28:11.028Z,88.05
2018-10-21T06:28:51.389Z,89.86
2018-10-21T06:29:31.788Z,90.99
2018-10-21T06:30:12.138Z,90.47
2018-10-21T06:32:28.258Z,87.34
2018-10-21T06:34:19.810Z,84.95
2018-10-21T06:35:05.275Z,84.39
2018-10-21T06:35:47.800Z,85.53
2018-10-21T06:36:28.263Z,86.38
2018-10-21T06:38:46.362Z,85.1
2018-10-21T06:39:33.240Z,85.19
2018-10-21T06:40:12.473Z,83.86
2018-10-21T06:40:52.916Z,84.19
2018-10-21T06:41:33.399Z,84.28
2018-10-21T06:42:13.712Z,82.95
2018-10-21T06:42:54.143Z,80.71
2018-10-21T06:43:34.606Z,80.13
2018-10-21T06:44:14.968Z,79.28
2018-10-21T06:44:55.431Z,78.99
2018-10-21T06:45:39.333Z,77.95
2018-10-21T06:46:19.550Z,77.7
2018-10-21T06:48:09.164Z,74.46
2018-10-21T06:48:51.956Z,74.27
2018-10-21T06:49:32.390Z,74.84
2018-10-21T06:51:30.370Z,75.6
2018-10-21T06:52:10.764Z,74.46
2018-10-21T06:52:57.899Z,75.42
2018-10-21T06:56:10.333Z,74.75
2018-10-21T06:56:50.900Z,74.46
2018-10-21T06:57:31.255Z,75.42
2018-10-21T06:58:11.510Z,75.13
2018-10-21T06:58:51.906Z,73.89
2018-10-21T06:59:32.290Z,73.61
2018-10-21T07:01:19.577Z,74.21
2018-10-21T07:02:00.035Z,73.26
2018-10-21T07:02:43.549Z,73.74
2018-10-21T07:03:33.697Z,73.07
2018-10-21T07:04:14.222Z,72.5
2018-10-21T07:04:54.525Z,72.21
2018-10-21T07:05:34.966Z,71.83
2018-10-21T07:06:15.371Z,71.93
2018-10-21T07:06:55.762Z,71.64
2018-10-21T07:07:40.592Z,72.31
2018-10-21T07:08:20.947Z,70.97
2018-10-21T07:09:01.371Z,71.93
2018-10-21T07:09:41.751Z,71.48
2018-10-21T07:10:22.197Z,71.58
2018-10-21T07:11:03.825Z,70.44
2018-10-21T07:11:44.203Z,70.53
2018-10-21T07:12:24.651Z,70.25
2018-10-21T07:13:05.055Z,69.96
2018-10-21T07:13:45.484Z,69.68
2018-10-21T07:14:25.885Z,70.25
2018-10-21T07:15:07.099Z,70.34
2018-10-21T07:15:47.552Z,71.58
2018-10-21T07:16:27.993Z,71.96
2018-10-21T07:17:10.547Z,70.53
2018-10-21T07:17:50.945Z,71.58
2018-10-21T07:18:48.438Z,71.11
2018-10-21T07:19:28.839Z,71.01
2018-10-21T07:20:09.260Z,70.92
2018-10-21T07:20:49.657Z,70.82
2018-10-21T07:21:30.082Z,70.15
2018-10-21T07:23:29.787Z,70.92
2018-10-21T07:24:10.786Z,70.09
2018-10-21T07:24:51.079Z,70.38
2018-10-21T07:25:31.456Z,69.9
2018-10-21T07:26:11.852Z,69.71
2018-10-21T07:26:58.582Z,69.43
2018-10-21T07:27:39.004Z,69.43
2018-10-21T07:28:19.403Z,68.66
2018-10-21T07:28:59.831Z,68.38
2018-10-21T07:29:40.183Z,68.28
2018-10-21T07:30:20.660Z,68.47
2018-10-21T07:31:01.083Z,68.41
2018-10-21T07:31:41.460Z,67.65
2018-10-21T07:32:22.085Z,67.21
2018-10-21T07:33:02.404Z,65.93
2018-10-21T07:33:42.743Z,65.39
2018-10-21T07:34:25.075Z,64.91
2018-10-21T07:35:05.344Z,65.01
2018-10-21T07:35:45.747Z,65.01
2018-10-21T07:36:26.810Z,64.94
2018-10-21T07:40:18.983Z,62.11
2018-10-21T07:40:59.771Z,61.44
2018-10-21T07:41:40.161Z,61.63
2018-10-21T07:42:20.905Z,61.89
2018-10-21T07:43:03.848Z,62.27
2018-10-21T07:43:44.485Z,62.49
2018-10-21T07:44:24.808Z,62.78
2018-10-21T07:46:52.778Z,61.35
2018-10-21T07:47:33.256Z,61.25
2018-10-21T07:48:13.709Z,61.25
2018-10-21T07:48:55.191Z,61.16
2018-10-21T07:49:35.671Z,61.06
2018-10-21T07:50:16.226Z,62.01
2018-10-21T07:50:56.596Z,62.11
2018-10-21T07:51:37.036Z,62.11
2018-10-21T07:52:18.764Z,62.43
2018-10-21T07:52:59.159Z,62.52
2018-10-21T07:53:39.580Z,62.33
2018-10-21T07:55:32.078Z,62.87
2018-10-21T07:56:12.449Z,62.59
2018-10-21T07:56:52.885Z,62.81
2018-10-21T07:57:34.328Z,62.62
2018-10-21T07:58:14.977Z,62.04
2018-10-21T08:01:42.087Z,60.99
2018-10-21T08:02:25.737Z,61.85
2018-10-21T08:03:11.764Z,62.33
2018-10-21T08:03:52.127Z,62.33
2018-10-21T08:04:33.084Z,61.28
2018-10-21T08:05:13.457Z,61.28
2018-10-21T08:05:54.272Z,60.83
2018-10-21T08:06:34.735Z,60.8
2018-10-21T08:07:15.902Z,61.51
2018-10-21T08:07:56.578Z,60.83
2018-10-21T08:08:37.719Z,59.97
2018-10-21T08:09:18.155Z,60.64
2018-10-21T08:09:58.630Z,59.52
2018-10-21T08:10:38.959Z,58.86
2018-10-21T08:11:19.350Z,57.99
2018-10-21T08:12:03.732Z,57.8
2018-10-21T08:12:44.040Z,57.73
2018-10-21T08:13:24.505Z,56.87
2018-10-21T08:14:06.361Z,57.73
2018-10-21T08:14:47.332Z,57.54
2018-10-21T08:15:27.543Z,57.61
2018-10-21T08:16:11.719Z,58.09
2018-10-21T08:16:52.008Z,58.37
2018-10-21T08:17:32.593Z,59.01
2018-10-21T08:18:12.889Z,59.3
2018-10-21T08:18:53.333Z,60.45
2018-10-21T08:19:33.694Z,60.45
2018-10-21T08:20:14.171Z,60.93
2018-10-21T08:20:56.069Z,60.93
2018-10-21T08:21:35.635Z,60.74
2018-10-21T08:22:17.430Z,60.16
2018-10-21T08:22:57.638Z,60.55
2018-10-21T08:23:37.999Z,60.64
2018-10-21T08:24:19.409Z,60.35
2018-10-21T08:24:59.781Z,60.35
2018-10-21T08:25:40.816Z,60.74
2018-10-21T08:26:21.244Z,61.41
2018-10-21T08:27:01.637Z,61.88
2018-10-21T08:27:42.017Z,62.55
2018-10-21T08:28:23.468Z,62.74
2018-10-21T08:29:03.752Z,62.46
2018-10-21T08:29:44.142Z,62.55
2018-10-21T08:30:24.605Z,62.46
2018-10-21T08:31:05.030Z,62.37
2018-10-21T08:31:45.456Z,61.98
2018-10-21T08:32:25.875Z,62.46
2018-10-21T08:33:07.341Z,61.05
2018-10-21T08:33:47.979Z,60.77
2018-10-21T08:34:28.361Z,60.96
2018-10-21T08:35:09.075Z,61.12
2018-10-21T08:35:49.899Z,61.41
2018-10-21T08:36:30.427Z,61.44
2018-10-21T08:37:10.887Z,61.54
2018-10-21T08:37:53.165Z,61.05
2018-10-21T08:38:33.697Z,60.86
2018-10-21T08:39:13.979Z,60.58
2018-10-21T08:39:54.499Z,60.38
2018-10-21T08:40:35.343Z,60.03
2018-10-21T08:41:15.759Z,59.55
2018-10-21T08:41:56.185Z,59.01
2018-10-21T08:42:36.892Z,58.62
2018-10-21T08:43:17.497Z,58.34
2018-10-21T08:43:58.344Z,57.95
2018-10-21T08:44:38.922Z,58.15
2018-10-21T08:46:58.215Z,57.12
2018-10-21T08:47:41.678Z,56.67
2018-10-21T08:48:23.624Z,55.71
2018-10-21T08:49:04.061Z,55.13
2018-10-21T08:49:44.757Z,54.94
2018-10-21T08:50:25.065Z,54.46
2018-10-21T08:51:05.836Z,54.3
2018-10-21T08:51:46.010Z,53.91
2018-10-21T08:52:26.560Z,53.46
2018-10-21T08:53:06.983Z,53.36
2018-10-21T08:53:47.519Z,52.98
2018-10-21T08:54:27.932Z,52.98
2018-10-21T08:55:08.459Z,52.31
2018-10-21T08:55:48.918Z,52.31
2018-10-21T08:56:29.356Z,51.86
2018-10-21T08:57:09.938Z,51.67
2018-10-21T09:01:59.282Z,50.61
2018-10-21T09:02:41.064Z,50.92
2018-10-21T09:03:21.519Z,50.54
2018-10-21T09:04:01.993Z,49.67
2018-10-21T09:04:42.280Z,48.83
2018-10-21T09:05:22.768Z,48.35
2018-10-21T09:06:03.174Z,48.18
2018-10-21T09:06:43.579Z,47.89
2018-10-21T09:07:23.990Z,47.22
2018-10-21T09:08:04.419Z,46.77
2018-10-21T09:08:44.839Z,45.73
2018-10-21T09:09:25.501Z,44.96
2018-10-21T09:10:06.027Z,44.31
2018-10-21T09:10:47.417Z,44.21
2018-10-21T09:11:28.100Z,43.94
2018-10-21T09:12:08.763Z,43.55
2018-10-21T09:12:49.159Z,43.55
2018-10-21T09:13:29.488Z,42.88
2018-10-21T09:14:09.983Z,42.97
2018-10-21T09:14:50.375Z,42.13
2018-10-21T09:15:32.428Z,42.21
2018-10-21T09:16:12.989Z,42.49
2018-10-21T09:16:53.184Z,42.97
2018-10-21T09:17:33.607Z,42.79
2018-10-21T09:18:14.186Z,42.88
2018-10-21T09:19:00.056Z,43.07
2018-10-21T09:19:39.928Z,43.46
2018-10-21T09:20:20.446Z,43.17
2018-10-21T09:21:00.847Z,42.69
2018-10-21T09:21:41.318Z,42.49
2018-10-21T09:22:23.409Z,41.92
2018-10-21T09:23:03.881Z,41.82
2018-10-21T09:23:45.963Z,42.4
2018-10-21T09:24:27.511Z,42.86
2018-10-21T09:25:07.935Z,42.96
2018-10-21T09:25:48.320Z,42.67
2018-10-21T09:28:05.346Z,43.05
2018-10-21T09:28:45.372Z,43.05
2018-10-21T09:29:26.126Z,42.86
2018-10-21T09:31:14.130Z,42.96
2018-10-21T09:31:57.254Z,43.61
2018-10-21T09:32:37.673Z,43.32
2018-10-21T09:33:18.913Z,43.32
2018-10-21T09:34:00.054Z,43.41
2018-10-21T09:34:40.787Z,43.8
2018-10-21T09:35:22.007Z,43.51
2018-10-21T09:36:02.544Z,43.51
2018-10-21T09:36:43.453Z,43.88
2018-10-21T09:37:24.084Z,44.07
2018-10-21T09:38:04.604Z,44.35
2018-10-21T09:38:45.045Z,44.35
2018-10-21T09:39:25.475Z,44.55
2018-10-21T09:40:05.981Z,44.17
2018-10-21T09:40:46.518Z,44.26
2018-10-21T09:41:26.763Z,44.55
2018-10-21T09:42:07.234Z,44.35
2018-10-21T09:42:50.357Z,44.35
2018-10-21T09:43:30.939Z,45.2
2018-10-21T09:44:11.576Z,46.04
2018-10-21T09:44:51.949Z,46.33
2018-10-21T09:45:32.321Z,46.72
2018-10-21T09:46:12.802Z,46.64
2018-10-21T09:46:53.185Z,46.45
2018-10-21T09:47:33.649Z,45.68
2018-10-21T09:48:15.909Z,45.03
2018-10-21T09:48:56.430Z,45.22
2018-10-21T09:49:37.006Z,44.26
2018-10-21T09:50:17.381Z,44.55
2018-10-21T09:50:58.248Z,44.55
2018-10-21T09:51:39.138Z,44.28
2018-10-21T09:52:19.325Z,44.48
2018-10-21T09:52:59.709Z,43.8
2018-10-21T09:53:40.121Z,43.54
2018-10-21T09:54:20.651Z,42.59
2018-10-21T09:55:01.254Z,42.21
2018-10-21T09:55:41.576Z,41.92
2018-10-21T09:56:22.017Z,41.75
2018-10-21T09:57:02.483Z,41.46
2018-10-21T09:57:42.986Z,41.46
2018-10-21T09:58:23.392Z,41.53
2018-10-21T09:59:04.233Z,41.53
2018-10-21T09:59:44.355Z,42.02